sensor_id;sensor_type;location;lat;lon;timestamp;pressure;altitude;pressure_sealevel;temperature;humidity
7026;BME280;3554;42.132;24.786;2024-03-29T00:02:20;98946.72;;;16.08;100.00
7026;BME280;3554;42.132;24.786;2024-03-29T00:04:45;98952.22;;;16.05;100.00
7026;BME280;3554;42.132;24.786;2024-03-29T00:07:11;98938.50;;;16.00;100.00
7026;BME280;3554;42.132;24.786;2024-03-29T00:09:37;98958.41;;;16.04;100.00
7026;BME280;3554;42.132;24.786;2024-03-29T00:12:04;98950.31;;;16.07;100.00
7026;BME280;3554;42.132;24.786;2024-03-29T00:14:31;98946.41;;;16.00;100.00
7026;BME280;3554;42.132;24.786;2024-03-29T00:16:57;98948.59;;;15.81;100.00
7026;BME280;3554;42.132;24.786;2024-03-29T00:19:24;98948.41;;;15.71;100.00
7026;BME280;3554;42.132;24.786;2024-03-29T00:21:50;98944.03;;;15.58;100.00
7026;BME280;3554;42.132;24.786;2024-03-29T00:24:16;98921.28;;;15.30;100.00
7026;BME280;3554;42.132;24.786;2024-03-29T00:26:42;98943.50;;;15.40;100.00
7026;BME280;3554;42.132;24.786;2024-03-29T00:29:08;98938.91;;;15.30;100.00
7026;BME280;3554;42.132;24.786;2024-03-29T00:31:34;98948.94;;;15.37;100.00
7026;BME280;3554;42.132;24.786;2024-03-29T00:34:00;98941.50;;;15.44;100.00
7026;BME280;3554;42.132;24.786;2024-03-29T00:36:27;98956.91;;;15.50;100.00
7026;BME280;3554;42.132;24.786;2024-03-29T00:38:53;98925.41;;;15.22;100.00
7026;BME280;3554;42.132;24.786;2024-03-29T00:41:19;98958.97;;;15.32;100.00
7026;BME280;3554;42.132;24.786;2024-03-29T00:43:45;98930.53;;;15.11;100.00
7026;BME280;3554;42.132;24.786;2024-03-29T00:46:11;98947.25;;;15.36;100.00
7026;BME280;3554;42.132;24.786;2024-03-29T00:48:37;98953.94;;;15.42;100.00
7026;BME280;3554;42.132;24.786;2024-03-29T00:51:03;98939.97;;;15.40;100.00
7026;BME280;3554;42.132;24.786;2024-03-29T00:53:31;98946.50;;;15.61;100.00
7026;BME280;3554;42.132;24.786;2024-03-29T00:55:57;98948.78;;;15.53;100.00
7026;BME280;3554;42.132;24.786;2024-03-29T00:58:23;98952.69;;;15.47;100.00
7026;BME280;3554;42.132;24.786;2024-03-29T01:00:49;98956.28;;;15.46;100.00
7026;BME280;3554;42.132;24.786;2024-03-29T01:03:15;98955.66;;;15.55;100.00
7026;BME280;3554;42.132;24.786;2024-03-29T01:05:40;98906.94;;;15.22;100.00
7026;BME280;3554;42.132;24.786;2024-03-29T01:08:06;98959.22;;;15.54;100.00
7026;BME280;3554;42.132;24.786;2024-03-29T01:10:34;98957.06;;;15.61;100.00
7026;BME280;3554;42.132;24.786;2024-03-29T01:13:00;98954.06;;;15.53;100.00
7026;BME280;3554;42.132;24.786;2024-03-29T01:15:25;98949.75;;;15.52;100.00
7026;BME280;3554;42.132;24.786;2024-03-29T01:17:51;98945.50;;;15.49;100.00
7026;BME280;3554;42.132;24.786;2024-03-29T01:20:17;98959.03;;;15.45;100.00
7026;BME280;3554;42.132;24.786;2024-03-29T01:22:43;98953.22;;;15.52;100.00
7026;BME280;3554;42.132;24.786;2024-03-29T01:25:09;98964.53;;;15.67;100.00
7026;BME280;3554;42.132;24.786;2024-03-29T01:27:36;98958.50;;;15.52;100.00
7026;BME280;3554;42.132;24.786;2024-03-29T01:30:03;98964.59;;;15.40;100.00
7026;BME280;3554;42.132;24.786;2024-03-29T01:32:29;98968.09;;;15.53;100.00
7026;BME280;3554;42.132;24.786;2024-03-29T01:34:55;98963.59;;;15.55;100.00
7026;BME280;3554;42.132;24.786;2024-03-29T01:37:21;98972.56;;;15.78;100.00
7026;BME280;3554;42.132;24.786;2024-03-29T01:39:47;98973.63;;;15.88;100.00
7026;BME280;3554;42.132;24.786;2024-03-29T01:42:13;98980.41;;;15.92;100.00
7026;BME280;3554;42.132;24.786;2024-03-29T01:44:40;98983.47;;;15.86;100.00
7026;BME280;3554;42.132;24.786;2024-03-29T01:47:07;98977.72;;;15.67;100.00
7026;BME280;3554;42.132;24.786;2024-03-29T01:49:34;98970.84;;;15.52;100.00
7026;BME280;3554;42.132;24.786;2024-03-29T01:52:02;98983.19;;;15.51;100.00
7026;BME280;3554;42.132;24.786;2024-03-29T01:54:30;98976.47;;;15.33;100.00
7026;BME280;3554;42.132;24.786;2024-03-29T01:56:57;98980.94;;;15.19;100.00
7026;BME280;3554;42.132;24.786;2024-03-29T01:59:25;98987.47;;;15.13;100.00
7026;BME280;3554;42.132;24.786;2024-03-29T02:01:54;99000.50;;;15.02;100.00
7026;BME280;3554;42.132;24.786;2024-03-29T02:04:21;99004.66;;;14.92;100.00
7026;BME280;3554;42.132;24.786;2024-03-29T02:06:48;99005.91;;;14.86;100.00
7026;BME280;3554;42.132;24.786;2024-03-29T02:09:16;99009.75;;;14.81;100.00
7026;BME280;3554;42.132;24.786;2024-03-29T02:11:42;99010.75;;;14.52;100.00
7026;BME280;3554;42.132;24.786;2024-03-29T02:14:09;99015.84;;;14.41;100.00
7026;BME280;3554;42.132;24.786;2024-03-29T02:16:35;99018.78;;;14.36;100.00
7026;BME280;3554;42.132;24.786;2024-03-29T02:19:05;99003.88;;;14.21;100.00
7026;BME280;3554;42.132;24.786;2024-03-29T02:21:33;99009.47;;;14.31;100.00
7026;BME280;3554;42.132;24.786;2024-03-29T02:24:06;99008.50;;;14.32;100.00
7026;BME280;3554;42.132;24.786;2024-03-29T02:26:34;99016.59;;;14.29;100.00
7026;BME280;3554;42.132;24.786;2024-03-29T02:29:07;99008.28;;;14.21;100.00
7026;BME280;3554;42.132;24.786;2024-03-29T02:31:34;99015.06;;;14.25;100.00
7026;BME280;3554;42.132;24.786;2024-03-29T02:34:01;99024.59;;;14.27;100.00
7026;BME280;3554;42.132;24.786;2024-03-29T02:36:28;99037.94;;;14.38;100.00
7026;BME280;3554;42.132;24.786;2024-03-29T02:38:55;99043.13;;;14.54;100.00
7026;BME280;3554;42.132;24.786;2024-03-29T02:41:24;99052.59;;;14.56;100.00
7026;BME280;3554;42.132;24.786;2024-03-29T02:43:51;99061.25;;;14.44;100.00
7026;BME280;3554;42.132;24.786;2024-03-29T02:46:18;99070.28;;;14.54;100.00
7026;BME280;3554;42.132;24.786;2024-03-29T02:48:45;99054.13;;;14.32;100.00
7026;BME280;3554;42.132;24.786;2024-03-29T02:51:11;99068.97;;;14.47;100.00
7026;BME280;3554;42.132;24.786;2024-03-29T02:53:38;99056.38;;;14.52;100.00
7026;BME280;3554;42.132;24.786;2024-03-29T02:56:04;99064.44;;;14.63;100.00
7026;BME280;3554;42.132;24.786;2024-03-29T02:58:34;99065.22;;;14.65;100.00
7026;BME280;3554;42.132;24.786;2024-03-29T03:01:05;99073.22;;;14.64;100.00
7026;BME280;3554;42.132;24.786;2024-03-29T03:03:32;99074.81;;;14.52;100.00
7026;BME280;3554;42.132;24.786;2024-03-29T03:05:58;99076.41;;;14.55;100.00
7026;BME280;3554;42.132;24.786;2024-03-29T03:08:25;99079.69;;;14.58;100.00
7026;BME280;3554;42.132;24.786;2024-03-29T03:11:09;99084.22;;;14.56;100.00
7026;BME280;3554;42.132;24.786;2024-03-29T03:13:38;99090.34;;;14.57;100.00
7026;BME280;3554;42.132;24.786;2024-03-29T03:16:05;99104.38;;;14.57;100.00
7026;BME280;3554;42.132;24.786;2024-03-29T03:18:31;99109.53;;;14.59;100.00
7026;BME280;3554;42.132;24.786;2024-03-29T03:20:59;99114.81;;;14.59;100.00
7026;BME280;3554;42.132;24.786;2024-03-29T03:23:25;99112.16;;;14.59;100.00
7026;BME280;3554;42.132;24.786;2024-03-29T03:25:56;99110.00;;;14.51;100.00
7026;BME280;3554;42.132;24.786;2024-03-29T03:28:22;99120.44;;;14.67;100.00
7026;BME280;3554;42.132;24.786;2024-03-29T03:30:52;99132.38;;;14.72;100.00
7026;BME280;3554;42.132;24.786;2024-03-29T03:33:18;99123.47;;;14.75;100.00
7026;BME280;3554;42.132;24.786;2024-03-29T03:35:45;99129.75;;;14.72;100.00
7026;BME280;3554;42.132;24.786;2024-03-29T03:38:11;99135.78;;;14.74;100.00
7026;BME280;3554;42.132;24.786;2024-03-29T03:40:38;99144.91;;;14.83;100.00
7026;BME280;3554;42.132;24.786;2024-03-29T03:43:05;99152.75;;;14.84;100.00
7026;BME280;3554;42.132;24.786;2024-03-29T03:45:34;99155.53;;;14.81;100.00
7026;BME280;3554;42.132;24.786;2024-03-29T03:48:02;99153.66;;;14.83;100.00
7026;BME280;3554;42.132;24.786;2024-03-29T03:50:29;99170.31;;;14.84;100.00
7026;BME280;3554;42.132;24.786;2024-03-29T03:52:55;99176.91;;;14.77;100.00
7026;BME280;3554;42.132;24.786;2024-03-29T03:55:22;99175.69;;;14.82;100.00
7026;BME280;3554;42.132;24.786;2024-03-29T03:57:48;99173.06;;;14.82;100.00
7026;BME280;3554;42.132;24.786;2024-03-29T04:00:17;99181.03;;;14.81;100.00
7026;BME280;3554;42.132;24.786;2024-03-29T04:02:47;99176.16;;;14.75;100.00
7026;BME280;3554;42.132;24.786;2024-03-29T04:05:15;99182.63;;;14.69;100.00
7026;BME280;3554;42.132;24.786;2024-03-29T04:07:41;99183.41;;;14.71;100.00
7026;BME280;3554;42.132;24.786;2024-03-29T04:10:09;99179.66;;;14.75;100.00
7026;BME280;3554;42.132;24.786;2024-03-29T04:12:35;99191.09;;;14.74;100.00
7026;BME280;3554;42.132;24.786;2024-03-29T04:15:02;99140.00;;;14.49;100.00
7026;BME280;3554;42.132;24.786;2024-03-29T04:17:28;99195.16;;;14.94;100.00
7026;BME280;3554;42.132;24.786;2024-03-29T04:19:56;99196.94;;;14.93;100.00
7026;BME280;3554;42.132;24.786;2024-03-29T04:22:23;99165.16;;;14.82;100.00
7026;BME280;3554;42.132;24.786;2024-03-29T04:24:51;99191.31;;;14.99;100.00
7026;BME280;3554;42.132;24.786;2024-03-29T04:27:17;99206.22;;;15.15;100.00
7026;BME280;3554;42.132;24.786;2024-03-29T04:29:44;99210.91;;;15.24;100.00
7026;BME280;3554;42.132;24.786;2024-03-29T04:32:09;99207.97;;;15.28;100.00
7026;BME280;3554;42.132;24.786;2024-03-29T04:34:36;99198.63;;;15.37;100.00
7026;BME280;3554;42.132;24.786;2024-03-29T04:37:03;99212.78;;;15.50;100.00
7026;BME280;3554;42.132;24.786;2024-03-29T04:39:31;99202.41;;;15.61;100.00
7026;BME280;3554;42.132;24.786;2024-03-29T04:41:58;99214.06;;;15.71;100.00
7026;BME280;3554;42.132;24.786;2024-03-29T04:44:27;99213.50;;;15.80;100.00
7026;BME280;3554;42.132;24.786;2024-03-29T04:46:54;99222.91;;;15.84;100.00
7026;BME280;3554;42.132;24.786;2024-03-29T04:49:23;99219.91;;;15.76;100.00
7026;BME280;3554;42.132;24.786;2024-03-29T04:51:55;99233.16;;;15.88;100.00
7026;BME280;3554;42.132;24.786;2024-03-29T04:54:22;99223.66;;;15.86;100.00
7026;BME280;3554;42.132;24.786;2024-03-29T04:56:51;99236.72;;;16.01;100.00
7026;BME280;3554;42.132;24.786;2024-03-29T04:59:18;99162.97;;;15.72;100.00
7026;BME280;3554;42.132;24.786;2024-03-29T05:01:46;99240.22;;;16.41;100.00
7026;BME280;3554;42.132;24.786;2024-03-29T05:04:15;99240.38;;;16.52;100.00
7026;BME280;3554;42.132;24.786;2024-03-29T05:06:44;99228.78;;;16.55;100.00
7026;BME280;3554;42.132;24.786;2024-03-29T05:09:11;99252.16;;;16.73;100.00
7026;BME280;3554;42.132;24.786;2024-03-29T05:11:38;99247.75;;;16.86;100.00
7026;BME280;3554;42.132;24.786;2024-03-29T05:14:06;99250.69;;;17.20;100.00
7026;BME280;3554;42.132;24.786;2024-03-29T05:16:33;99263.53;;;17.51;100.00
7026;BME280;3554;42.132;24.786;2024-03-29T05:19:00;99262.53;;;17.64;98.42
7026;BME280;3554;42.132;24.786;2024-03-29T05:21:27;99270.19;;;17.69;98.97
7026;BME280;3554;42.132;24.786;2024-03-29T05:23:54;99275.09;;;17.86;99.50
7026;BME280;3554;42.132;24.786;2024-03-29T05:26:21;99277.69;;;18.11;96.28
7026;BME280;3554;42.132;24.786;2024-03-29T05:28:48;99283.72;;;18.13;97.48
7026;BME280;3554;42.132;24.786;2024-03-29T05:31:16;99281.22;;;18.35;94.99
7026;BME280;3554;42.132;24.786;2024-03-29T05:33:44;99286.44;;;18.48;92.73
7026;BME280;3554;42.132;24.786;2024-03-29T05:36:12;99285.28;;;18.52;93.88
7026;BME280;3554;42.132;24.786;2024-03-29T05:38:39;99292.16;;;18.54;92.68
7026;BME280;3554;42.132;24.786;2024-03-29T05:41:06;99286.19;;;18.63;90.93
7026;BME280;3554;42.132;24.786;2024-03-29T05:43:33;99288.53;;;18.55;91.17
7026;BME280;3554;42.132;24.786;2024-03-29T05:46:00;99299.81;;;18.70;87.86
7026;BME280;3554;42.132;24.786;2024-03-29T05:48:29;99302.63;;;18.79;88.17
7026;BME280;3554;42.132;24.786;2024-03-29T05:50:56;99290.19;;;18.80;88.21
7026;BME280;3554;42.132;24.786;2024-03-29T05:53:23;99294.56;;;18.81;85.14
7026;BME280;3554;42.132;24.786;2024-03-29T05:55:50;99324.84;;;18.89;84.17
7026;BME280;3554;42.132;24.786;2024-03-29T05:58:17;99321.13;;;19.03;84.37
7026;BME280;3554;42.132;24.786;2024-03-29T06:00:46;99310.06;;;19.09;84.49
7026;BME280;3554;42.132;24.786;2024-03-29T06:03:12;99312.84;;;19.07;82.59
7026;BME280;3554;42.132;24.786;2024-03-29T06:05:41;99315.53;;;19.30;81.83
7026;BME280;3554;42.132;24.786;2024-03-29T06:08:08;99305.56;;;19.33;80.48
7026;BME280;3554;42.132;24.786;2024-03-29T06:10:35;99315.59;;;19.41;82.08
7026;BME280;3554;42.132;24.786;2024-03-29T06:13:02;99311.28;;;19.51;79.84
7026;BME280;3554;42.132;24.786;2024-03-29T06:15:36;99315.72;;;19.72;82.34
7026;BME280;3554;42.132;24.786;2024-03-29T06:18:20;99316.34;;;19.65;78.30
7026;BME280;3554;42.132;24.786;2024-03-29T06:20:49;99308.50;;;19.74;79.62
7026;BME280;3554;42.132;24.786;2024-03-29T06:23:16;99310.78;;;19.68;78.52
7026;BME280;3554;42.132;24.786;2024-03-29T06:25:44;99323.09;;;19.80;79.61
7026;BME280;3554;42.132;24.786;2024-03-29T06:28:11;99330.59;;;19.86;78.89
7026;BME280;3554;42.132;24.786;2024-03-29T06:30:38;99345.44;;;19.99;78.99
7026;BME280;3554;42.132;24.786;2024-03-29T06:33:07;99335.91;;;19.97;76.99
7026;BME280;3554;42.132;24.786;2024-03-29T06:35:35;99339.88;;;20.24;74.29
7026;BME280;3554;42.132;24.786;2024-03-29T06:38:03;99346.41;;;20.32;72.75
7026;BME280;3554;42.132;24.786;2024-03-29T06:40:30;99336.97;;;20.39;72.56
7026;BME280;3554;42.132;24.786;2024-03-29T06:42:57;99356.03;;;20.44;69.50
7026;BME280;3554;42.132;24.786;2024-03-29T06:45:26;99351.81;;;20.52;69.44
7026;BME280;3554;42.132;24.786;2024-03-29T06:47:54;99339.75;;;20.37;69.04
7026;BME280;3554;42.132;24.786;2024-03-29T06:50:21;99360.53;;;20.43;69.84
7026;BME280;3554;42.132;24.786;2024-03-29T06:52:48;99346.56;;;20.62;70.86
7026;BME280;3554;42.132;24.786;2024-03-29T06:55:16;99369.00;;;20.80;71.41
7026;BME280;3554;42.132;24.786;2024-03-29T06:57:43;99373.88;;;20.75;69.88
7026;BME280;3554;42.132;24.786;2024-03-29T07:00:12;99372.16;;;20.74;71.31
7026;BME280;3554;42.132;24.786;2024-03-29T07:02:39;99370.50;;;20.93;69.07
7026;BME280;3554;42.132;24.786;2024-03-29T07:05:06;99366.44;;;21.00;67.40
7026;BME280;3554;42.132;24.786;2024-03-29T07:07:36;99372.94;;;20.96;67.86
7026;BME280;3554;42.132;24.786;2024-03-29T07:10:04;99367.50;;;20.98;66.73
7026;BME280;3554;42.132;24.786;2024-03-29T07:12:33;99384.75;;;21.14;66.13
7026;BME280;3554;42.132;24.786;2024-03-29T07:15:00;99395.19;;;21.06;65.33
7026;BME280;3554;42.132;24.786;2024-03-29T07:17:27;99395.06;;;21.08;66.63
7026;BME280;3554;42.132;24.786;2024-03-29T07:19:54;99388.97;;;21.17;66.50
7026;BME280;3554;42.132;24.786;2024-03-29T07:22:21;99371.75;;;21.00;67.53
7026;BME280;3554;42.132;24.786;2024-03-29T07:24:48;99387.75;;;21.42;68.96
7026;BME280;3554;42.132;24.786;2024-03-29T07:27:15;99402.13;;;21.50;65.02
7026;BME280;3554;42.132;24.786;2024-03-29T07:29:44;99403.72;;;21.42;62.52
7026;BME280;3554;42.132;24.786;2024-03-29T07:32:11;99408.03;;;21.54;62.98
7026;BME280;3554;42.132;24.786;2024-03-29T07:34:38;99408.63;;;21.57;61.48
7026;BME280;3554;42.132;24.786;2024-03-29T07:37:05;99401.22;;;21.61;63.12
7026;BME280;3554;42.132;24.786;2024-03-29T07:39:35;99418.53;;;21.76;61.51
7026;BME280;3554;42.132;24.786;2024-03-29T07:42:02;99413.63;;;21.71;63.02
7026;BME280;3554;42.132;24.786;2024-03-29T07:44:29;99417.53;;;21.88;62.53
7026;BME280;3554;42.132;24.786;2024-03-29T07:46:58;99411.66;;;21.94;60.04
7026;BME280;3554;42.132;24.786;2024-03-29T07:49:25;99422.06;;;21.97;59.58
7026;BME280;3554;42.132;24.786;2024-03-29T07:51:52;99432.25;;;22.12;59.78
7026;BME280;3554;42.132;24.786;2024-03-29T07:54:18;99425.84;;;22.24;57.95
7026;BME280;3554;42.132;24.786;2024-03-29T07:56:46;99430.63;;;22.30;60.39
7026;BME280;3554;42.132;24.786;2024-03-29T07:59:13;99431.75;;;22.28;59.11
7026;BME280;3554;42.132;24.786;2024-03-29T08:01:40;99419.97;;;22.30;60.70
7026;BME280;3554;42.132;24.786;2024-03-29T08:04:10;99432.56;;;22.19;60.04
7026;BME280;3554;42.132;24.786;2024-03-29T08:06:37;99431.84;;;22.17;57.96
7026;BME280;3554;42.132;24.786;2024-03-29T08:09:04;99420.78;;;22.21;60.70
7026;BME280;3554;42.132;24.786;2024-03-29T08:11:31;99421.00;;;22.39;59.25
7026;BME280;3554;42.132;24.786;2024-03-29T08:13:58;99424.69;;;22.48;59.12
7026;BME280;3554;42.132;24.786;2024-03-29T08:16:25;99424.03;;;22.65;59.20
7026;BME280;3554;42.132;24.786;2024-03-29T08:18:52;99428.66;;;22.63;58.91
7026;BME280;3554;42.132;24.786;2024-03-29T08:21:20;99425.28;;;22.61;59.03
7026;BME280;3554;42.132;24.786;2024-03-29T08:23:47;99414.50;;;22.72;58.86
7026;BME280;3554;42.132;24.786;2024-03-29T08:26:16;99441.53;;;22.88;57.84
7026;BME280;3554;42.132;24.786;2024-03-29T08:28:44;99440.38;;;22.81;56.11
7026;BME280;3554;42.132;24.786;2024-03-29T08:31:12;99431.44;;;23.01;57.74
7026;BME280;3554;42.132;24.786;2024-03-29T08:33:39;99440.59;;;23.17;55.66
7026;BME280;3554;42.132;24.786;2024-03-29T08:36:07;99429.88;;;23.08;55.97
7026;BME280;3554;42.132;24.786;2024-03-29T08:38:36;99427.66;;;23.22;56.90
7026;BME280;3554;42.132;24.786;2024-03-29T08:41:06;99441.16;;;23.21;54.26
7026;BME280;3554;42.132;24.786;2024-03-29T08:43:33;99437.22;;;23.15;54.83
7026;BME280;3554;42.132;24.786;2024-03-29T08:46:00;99438.66;;;23.29;57.15
7026;BME280;3554;42.132;24.786;2024-03-29T08:48:27;99402.34;;;23.26;56.65
7026;BME280;3554;42.132;24.786;2024-03-29T08:50:55;99439.06;;;23.44;57.02
7026;BME280;3554;42.132;24.786;2024-03-29T08:53:22;99424.84;;;23.43;58.21
7026;BME280;3554;42.132;24.786;2024-03-29T08:55:50;99432.03;;;23.62;56.81
7026;BME280;3554;42.132;24.786;2024-03-29T08:58:17;99416.53;;;23.56;56.11
7026;BME280;3554;42.132;24.786;2024-03-29T09:00:53;99426.09;;;23.68;55.92
7026;BME280;3554;42.132;24.786;2024-03-29T09:03:21;99422.84;;;23.74;54.76
7026;BME280;3554;42.132;24.786;2024-03-29T09:05:48;99431.44;;;23.87;55.36
7026;BME280;3554;42.132;24.786;2024-03-29T09:08:16;99438.59;;;23.86;54.00
7026;BME280;3554;42.132;24.786;2024-03-29T09:10:44;99432.84;;;23.81;56.16
7026;BME280;3554;42.132;24.786;2024-03-29T09:13:12;99436.56;;;23.98;55.13
7026;BME280;3554;42.132;24.786;2024-03-29T09:15:39;99436.56;;;23.98;53.87
7026;BME280;3554;42.132;24.786;2024-03-29T09:18:06;99423.75;;;24.20;55.48
7026;BME280;3554;42.132;24.786;2024-03-29T09:20:43;99420.53;;;24.17;52.29
7026;BME280;3554;42.132;24.786;2024-03-29T09:23:10;99418.81;;;24.16;55.18
7026;BME280;3554;42.132;24.786;2024-03-29T09:25:39;99424.16;;;24.16;52.39
7026;BME280;3554;42.132;24.786;2024-03-29T09:28:06;99413.03;;;24.20;51.67
7026;BME280;3554;42.132;24.786;2024-03-29T09:30:37;99429.25;;;24.46;51.90
7026;BME280;3554;42.132;24.786;2024-03-29T09:33:04;99425.28;;;24.50;50.69
7026;BME280;3554;42.132;24.786;2024-03-29T09:35:34;99418.31;;;24.39;51.45
7026;BME280;3554;42.132;24.786;2024-03-29T09:38:01;99409.03;;;24.61;49.87
7026;BME280;3554;42.132;24.786;2024-03-29T09:40:29;99418.16;;;24.68;47.18
7026;BME280;3554;42.132;24.786;2024-03-29T09:43:00;99412.69;;;24.60;48.58
7026;BME280;3554;42.132;24.786;2024-03-29T09:45:31;99405.63;;;24.69;49.04
7026;BME280;3554;42.132;24.786;2024-03-29T09:48:02;99392.66;;;24.74;48.80
7026;BME280;3554;42.132;24.786;2024-03-29T09:50:30;99385.03;;;24.69;49.16
7026;BME280;3554;42.132;24.786;2024-03-29T09:52:58;99396.19;;;24.65;46.50
7026;BME280;3554;42.132;24.786;2024-03-29T09:55:25;99395.66;;;24.88;46.46
7026;BME280;3554;42.132;24.786;2024-03-29T09:57:53;99394.34;;;24.92;44.35
7026;BME280;3554;42.132;24.786;2024-03-29T10:00:20;99394.66;;;24.89;46.86
7026;BME280;3554;42.132;24.786;2024-03-29T10:02:49;99386.19;;;25.11;46.92
7026;BME280;3554;42.132;24.786;2024-03-29T10:05:18;99380.41;;;25.06;44.53
7026;BME280;3554;42.132;24.786;2024-03-29T10:07:47;99378.41;;;25.08;44.87
7026;BME280;3554;42.132;24.786;2024-03-29T10:10:14;99383.22;;;25.22;44.79
7026;BME280;3554;42.132;24.786;2024-03-29T10:12:41;99375.81;;;25.34;49.08
7026;BME280;3554;42.132;24.786;2024-03-29T10:15:08;99371.13;;;25.54;47.18
7026;BME280;3554;42.132;24.786;2024-03-29T10:17:44;99361.19;;;25.46;44.00
7026;BME280;3554;42.132;24.786;2024-03-29T10:20:11;99372.78;;;25.11;41.01
7026;BME280;3554;42.132;24.786;2024-03-29T10:22:42;99367.84;;;25.24;45.34
7026;BME280;3554;42.132;24.786;2024-03-29T10:25:10;99371.91;;;25.28;45.15
7026;BME280;3554;42.132;24.786;2024-03-29T10:27:37;99366.78;;;25.17;43.68
7026;BME280;3554;42.132;24.786;2024-03-29T10:30:06;99328.28;;;25.18;43.71
7026;BME280;3554;42.132;24.786;2024-03-29T10:32:34;99348.28;;;25.42;45.06
7026;BME280;3554;42.132;24.786;2024-03-29T10:35:01;99350.09;;;25.41;43.98
7026;BME280;3554;42.132;24.786;2024-03-29T10:37:29;99337.66;;;25.58;42.72
7026;BME280;3554;42.132;24.786;2024-03-29T10:40:00;99326.97;;;25.66;44.19
7026;BME280;3554;42.132;24.786;2024-03-29T10:42:28;99315.88;;;25.61;43.45
7026;BME280;3554;42.132;24.786;2024-03-29T10:44:56;99303.78;;;25.57;44.09
7026;BME280;3554;42.132;24.786;2024-03-29T10:47:24;99306.00;;;25.61;42.98
7026;BME280;3554;42.132;24.786;2024-03-29T10:49:53;99298.06;;;25.77;43.49
7026;BME280;3554;42.132;24.786;2024-03-29T10:52:21;99305.66;;;24.95;40.82
7026;BME280;3554;42.132;24.786;2024-03-29T10:54:48;99295.41;;;24.28;42.54
7026;BME280;3554;42.132;24.786;2024-03-29T10:57:22;99279.28;;;24.20;43.57
7026;BME280;3554;42.132;24.786;2024-03-29T10:59:57;99282.91;;;24.47;42.55
7026;BME280;3554;42.132;24.786;2024-03-29T11:02:33;99272.81;;;24.58;41.12
7026;BME280;3554;42.132;24.786;2024-03-29T11:05:05;99280.75;;;24.50;42.39
7026;BME280;3554;42.132;24.786;2024-03-29T11:07:34;99274.69;;;24.75;43.50
7026;BME280;3554;42.132;24.786;2024-03-29T11:10:05;99272.31;;;24.72;41.27
7026;BME280;3554;42.132;24.786;2024-03-29T11:12:47;99280.00;;;24.58;41.25
7026;BME280;3554;42.132;24.786;2024-03-29T11:15:25;99270.38;;;24.47;41.64
7026;BME280;3554;42.132;24.786;2024-03-29T11:17:54;99265.97;;;24.64;42.35
7026;BME280;3554;42.132;24.786;2024-03-29T11:20:24;99260.53;;;25.08;44.06
7026;BME280;3554;42.132;24.786;2024-03-29T11:23:01;99255.19;;;25.34;42.77
7026;BME280;3554;42.132;24.786;2024-03-29T11:25:41;99264.25;;;25.59;42.48
7026;BME280;3554;42.132;24.786;2024-03-29T11:28:11;99267.19;;;25.48;39.71
7026;BME280;3554;42.132;24.786;2024-03-29T11:30:45;99274.00;;;25.60;40.13
7026;BME280;3554;42.132;24.786;2024-03-29T11:33:29;99234.22;;;25.47;39.22
7026;BME280;3554;42.132;24.786;2024-03-29T11:35:57;99199.44;;;25.12;39.55
7026;BME280;3554;42.132;24.786;2024-03-29T11:38:34;99247.44;;;25.82;39.96
7026;BME280;3554;42.132;24.786;2024-03-29T11:41:05;99244.47;;;25.93;40.14
7026;BME280;3554;42.132;24.786;2024-03-29T11:43:35;99244.72;;;25.74;39.70
7026;BME280;3554;42.132;24.786;2024-03-29T11:46:05;99258.47;;;25.46;40.96
7026;BME280;3554;42.132;24.786;2024-03-29T11:48:33;99245.16;;;25.10;41.71
7026;BME280;3554;42.132;24.786;2024-03-29T11:51:01;99234.44;;;25.10;42.17
7026;BME280;3554;42.132;24.786;2024-03-29T11:53:29;99255.00;;;25.27;43.84
7026;BME280;3554;42.132;24.786;2024-03-29T11:55:57;99260.88;;;25.57;40.69
7026;BME280;3554;42.132;24.786;2024-03-29T11:58:24;99254.38;;;25.59;40.26
7026;BME280;3554;42.132;24.786;2024-03-29T12:00:54;99251.88;;;25.58;40.45
7026;BME280;3554;42.132;24.786;2024-03-29T12:03:25;99242.09;;;25.49;40.09
7026;BME280;3554;42.132;24.786;2024-03-29T12:05:53;99266.25;;;25.31;40.31
7026;BME280;3554;42.132;24.786;2024-03-29T12:08:24;99250.53;;;25.36;40.30
7026;BME280;3554;42.132;24.786;2024-03-29T12:10:51;99249.63;;;25.45;39.74
7026;BME280;3554;42.132;24.786;2024-03-29T12:13:18;99253.53;;;25.59;39.23
7026;BME280;3554;42.132;24.786;2024-03-29T12:15:45;99245.91;;;25.46;38.77
7026;BME280;3554;42.132;24.786;2024-03-29T12:18:14;99252.91;;;25.65;38.79
7026;BME280;3554;42.132;24.786;2024-03-29T12:20:42;99239.69;;;25.71;38.09
7026;BME280;3554;42.132;24.786;2024-03-29T12:23:30;99230.84;;;25.87;38.06
7026;BME280;3554;42.132;24.786;2024-03-29T12:25:58;99229.88;;;25.96;37.59
7026;BME280;3554;42.132;24.786;2024-03-29T12:28:26;99224.97;;;25.75;37.99
7026;BME280;3554;42.132;24.786;2024-03-29T12:30:53;99204.28;;;25.60;38.88
7026;BME280;3554;42.132;24.786;2024-03-29T12:33:23;99232.59;;;25.62;38.94
7026;BME280;3554;42.132;24.786;2024-03-29T12:35:52;99224.03;;;25.59;38.52
7026;BME280;3554;42.132;24.786;2024-03-29T12:38:21;99220.91;;;25.71;38.60
7026;BME280;3554;42.132;24.786;2024-03-29T12:40:49;99213.19;;;25.68;38.22
7026;BME280;3554;42.132;24.786;2024-03-29T12:43:20;99224.59;;;25.70;38.57
7026;BME280;3554;42.132;24.786;2024-03-29T12:45:49;99217.75;;;25.76;38.92
7026;BME280;3554;42.132;24.786;2024-03-29T12:48:17;99220.81;;;25.89;39.13
7026;BME280;3554;42.132;24.786;2024-03-29T12:50:46;99219.66;;;25.91;38.75
7026;BME280;3554;42.132;24.786;2024-03-29T12:53:14;99221.66;;;25.97;39.52
7026;BME280;3554;42.132;24.786;2024-03-29T12:55:43;99217.59;;;25.85;38.72
7026;BME280;3554;42.132;24.786;2024-03-29T12:58:11;99225.44;;;25.71;38.44
7026;BME280;3554;42.132;24.786;2024-03-29T13:00:39;99223.03;;;26.01;38.26
7026;BME280;3554;42.132;24.786;2024-03-29T13:03:06;99226.13;;;26.14;38.12
7026;BME280;3554;42.132;24.786;2024-03-29T13:05:34;99226.22;;;25.97;37.58
7026;BME280;3554;42.132;24.786;2024-03-29T13:08:07;99228.22;;;25.95;37.29
7026;BME280;3554;42.132;24.786;2024-03-29T13:10:36;99223.50;;;25.89;36.90
7026;BME280;3554;42.132;24.786;2024-03-29T13:13:03;99224.22;;;25.99;37.16